sensor_id;sensor_type;location;lat;lon;timestamp;P1;durP1;ratioP1;P2;durP2;ratioP2
41079;SDS011;26826;50.718;7.114;2022-08-01T00:00:14;0.93;;;0.37;;
41079;SDS011;26826;50.718;7.114;2022-08-01T00:10:15;0.77;;;0.33;;
41079;SDS011;26826;50.718;7.114;2022-08-01T00:20:16;0.80;;;0.30;;
41079;SDS011;26826;50.718;7.114;2022-08-01T00:30:17;0.75;;;0.40;;
41079;SDS011;26826;50.718;7.114;2022-08-01T00:40:18;0.87;;;0.30;;
41079;SDS011;26826;50.718;7.114;2022-08-01T00:50:18;0.87;;;0.40;;
41079;SDS011;26826;50.718;7.114;2022-08-01T01:00:19;0.62;;;0.30;;
41079;SDS011;26826;50.718;7.114;2022-08-01T01:10:25;0.50;;;0.30;;
41079;SDS011;26826;50.718;7.114;2022-08-01T01:20:39;0.55;;;0.30;;
41079;SDS011;26826;50.718;7.114;2022-08-01T01:30:42;0.60;;;0.35;;
41079;SDS011;26826;50.718;7.114;2022-08-01T01:40:46;0.80;;;0.40;;
41079;SDS011;26826;50.718;7.114;2022-08-01T01:50:50;0.65;;;0.30;;
41079;SDS011;26826;50.718;7.114;2022-08-01T02:00:52;0.90;;;0.50;;
41079;SDS011;26826;50.718;7.114;2022-08-01T02:10:54;1.10;;;0.40;;
41079;SDS011;26826;50.718;7.114;2022-08-01T02:21:16;0.80;;;0.40;;
41079;SDS011;26826;50.718;7.114;2022-08-01T02:31:23;0.68;;;0.30;;
41079;SDS011;26826;50.718;7.114;2022-08-01T02:41:24;1.67;;;0.50;;
41079;SDS011;26826;50.718;7.114;2022-08-01T02:51:27;0.60;;;0.30;;
41079;SDS011;26826;50.718;7.114;2022-08-01T03:01:30;0.77;;;0.37;;
41079;SDS011;26826;50.718;7.114;2022-08-01T03:11:33;0.77;;;0.40;;
41079;SDS011;26826;50.718;7.114;2022-08-01T03:21:36;0.68;;;0.30;;
41079;SDS011;26826;50.718;7.114;2022-08-01T03:31:38;0.70;;;0.30;;
41079;SDS011;26826;50.718;7.114;2022-08-01T03:41:45;1.15;;;0.55;;
41079;SDS011;26826;50.718;7.114;2022-08-01T03:51:50;0.60;;;0.30;;
41079;SDS011;26826;50.718;7.114;2022-08-01T04:01:52;1.00;;;0.52;;
41079;SDS011;26826;50.718;7.114;2022-08-01T04:11:55;1.08;;;0.50;;
41079;SDS011;26826;50.718;7.114;2022-08-01T04:21:55;0.90;;;0.50;;
41079;SDS011;26826;50.718;7.114;2022-08-01T04:31:56;0.95;;;0.50;;
41079;SDS011;26826;50.718;7.114;2022-08-01T04:42:00;0.97;;;0.50;;
41079;SDS011;26826;50.718;7.114;2022-08-01T04:52:03;1.27;;;0.80;;
41079;SDS011;26826;50.718;7.114;2022-08-01T05:02:07;1.30;;;0.77;;
41079;SDS011;26826;50.718;7.114;2022-08-01T05:22:10;1.10;;;0.70;;
41079;SDS011;26826;50.718;7.114;2022-08-01T05:32:11;1.60;;;0.80;;
41079;SDS011;26826;50.718;7.114;2022-08-01T05:42:11;1.75;;;0.98;;
41079;SDS011;26826;50.718;7.114;2022-08-01T05:52:12;2.47;;;0.90;;
41079;SDS011;26826;50.718;7.114;2022-08-01T06:02:13;2.53;;;1.17;;
41079;SDS011;26826;50.718;7.114;2022-08-01T06:12:14;1.70;;;1.08;;
41079;SDS011;26826;50.718;7.114;2022-08-01T06:22:15;1.60;;;0.95;;
41079;SDS011;26826;50.718;7.114;2022-08-01T06:32:15;1.75;;;1.12;;
41079;SDS011;26826;50.718;7.114;2022-08-01T06:42:16;1.98;;;1.10;;
41079;SDS011;26826;50.718;7.114;2022-08-01T06:52:17;2.08;;;1.30;;
41079;SDS011;26826;50.718;7.114;2022-08-01T07:02:17;1.62;;;1.02;;
41079;SDS011;26826;50.718;7.114;2022-08-01T07:12:18;1.83;;;1.12;;
41079;SDS011;26826;50.718;7.114;2022-08-01T07:22:19;1.92;;;1.05;;
41079;SDS011;26826;50.718;7.114;2022-08-01T07:32:19;1.75;;;1.12;;
41079;SDS011;26826;50.718;7.114;2022-08-01T07:42:20;2.62;;;1.20;;
41079;SDS011;26826;50.718;7.114;2022-08-01T07:52:20;1.95;;;1.30;;
41079;SDS011;26826;50.718;7.114;2022-08-01T08:02:21;1.87;;;1.15;;
41079;SDS011;26826;50.718;7.114;2022-08-01T08:12:21;2.75;;;1.48;;
41079;SDS011;26826;50.718;7.114;2022-08-01T08:22:23;2.20;;;1.17;;
41079;SDS011;26826;50.718;7.114;2022-08-01T08:32:23;1.60;;;1.02;;
41079;SDS011;26826;50.718;7.114;2022-08-01T08:42:24;2.00;;;1.20;;
41079;SDS011;26826;50.718;7.114;2022-08-01T08:52:25;1.85;;;1.20;;
41079;SDS011;26826;50.718;7.114;2022-08-01T09:02:26;1.30;;;0.80;;
41079;SDS011;26826;50.718;7.114;2022-08-01T09:12:27;1.40;;;0.82;;
41079;SDS011;26826;50.718;7.114;2022-08-01T09:22:28;1.40;;;0.80;;
41079;SDS011;26826;50.718;7.114;2022-08-01T09:32:33;1.45;;;0.90;;
41079;SDS011;26826;50.718;7.114;2022-08-01T09:42:33;1.58;;;0.85;;
41079;SDS011;26826;50.718;7.114;2022-08-01T09:52:34;1.30;;;0.85;;
41079;SDS011;26826;50.718;7.114;2022-08-01T10:02:38;1.30;;;0.68;;
41079;SDS011;26826;50.718;7.114;2022-08-01T10:12:42;1.20;;;0.90;;
41079;SDS011;26826;50.718;7.114;2022-08-01T10:22:43;1.43;;;0.90;;
41079;SDS011;26826;50.718;7.114;2022-08-01T10:32:44;1.20;;;0.80;;
41079;SDS011;26826;50.718;7.114;2022-08-01T10:53:07;1.42;;;1.00;;
41079;SDS011;26826;50.718;7.114;2022-08-01T11:03:15;1.42;;;0.90;;
41079;SDS011;26826;50.718;7.114;2022-08-01T11:24:12;1.10;;;0.70;;
41079;SDS011;26826;50.718;7.114;2022-08-01T11:34:13;0.90;;;0.70;;
41079;SDS011;26826;50.718;7.114;2022-08-01T11:44:18;1.33;;;0.70;;
41079;SDS011;26826;50.718;7.114;2022-08-01T11:54:28;1.40;;;0.82;;
41079;SDS011;26826;50.718;7.114;2022-08-01T12:04:44;1.70;;;1.08;;
41079;SDS011;26826;50.718;7.114;2022-08-01T12:14:53;1.50;;;1.05;;
41079;SDS011;26826;50.718;7.114;2022-08-01T12:34:55;1.17;;;0.70;;
41079;SDS011;26826;50.718;7.114;2022-08-01T12:44:57;1.87;;;1.00;;
41079;SDS011;26826;50.718;7.114;2022-08-01T12:55:02;1.57;;;0.73;;
41079;SDS011;26826;50.718;7.114;2022-08-01T13:05:10;1.42;;;0.70;;
41079;SDS011;26826;50.718;7.114;2022-08-01T13:15:19;1.20;;;0.70;;
41079;SDS011;26826;50.718;7.114;2022-08-01T13:25:21;1.10;;;0.60;;
41079;SDS011;26826;50.718;7.114;2022-08-01T13:35:22;1.13;;;0.70;;
41079;SDS011;26826;50.718;7.114;2022-08-01T13:45:23;0.85;;;0.57;;
41079;SDS011;26826;50.718;7.114;2022-08-01T13:55:23;1.30;;;0.90;;
41079;SDS011;26826;50.718;7.114;2022-08-01T14:05:24;1.57;;;0.80;;
41079;SDS011;26826;50.718;7.114;2022-08-01T14:15:24;1.58;;;0.90;;
41079;SDS011;26826;50.718;7.114;2022-08-01T14:25:25;1.83;;;0.93;;
41079;SDS011;26826;50.718;7.114;2022-08-01T14:35:26;1.85;;;0.77;;
41079;SDS011;26826;50.718;7.114;2022-08-01T14:45:27;0.90;;;0.50;;
41079;SDS011;26826;50.718;7.114;2022-08-01T14:55:28;1.00;;;0.60;;
41079;SDS011;26826;50.718;7.114;2022-08-01T15:05:28;1.10;;;0.80;;
41079;SDS011;26826;50.718;7.114;2022-08-01T15:15:30;0.80;;;0.50;;
41079;SDS011;26826;50.718;7.114;2022-08-01T15:25:31;1.20;;;0.70;;
41079;SDS011;26826;50.718;7.114;2022-08-01T15:35:31;1.20;;;0.62;;
41079;SDS011;26826;50.718;7.114;2022-08-01T15:45:32;1.33;;;0.77;;
41079;SDS011;26826;50.718;7.114;2022-08-01T15:55:36;2.70;;;0.50;;
41079;SDS011;26826;50.718;7.114;2022-08-01T16:05:37;1.23;;;0.57;;
41079;SDS011;26826;50.718;7.114;2022-08-01T16:15:38;1.17;;;0.70;;
41079;SDS011;26826;50.718;7.114;2022-08-01T16:25:39;1.20;;;0.75;;
41079;SDS011;26826;50.718;7.114;2022-08-01T16:35:39;0.90;;;0.60;;
41079;SDS011;26826;50.718;7.114;2022-08-01T16:45:43;1.00;;;0.70;;
41079;SDS011;26826;50.718;7.114;2022-08-01T16:55:45;1.33;;;0.75;;
41079;SDS011;26826;50.718;7.114;2022-08-01T17:05:46;1.00;;;0.70;;
41079;SDS011;26826;50.718;7.114;2022-08-01T17:15:46;0.90;;;0.52;;
41079;SDS011;26826;50.718;7.114;2022-08-01T17:25:47;0.90;;;0.60;;
41079;SDS011;26826;50.718;7.114;2022-08-01T17:35:47;1.40;;;0.70;;
41079;SDS011;26826;50.718;7.114;2022-08-01T17:45:48;1.30;;;0.70;;
41079;SDS011;26826;50.718;7.114;2022-08-01T17:55:50;1.05;;;0.60;;
41079;SDS011;26826;50.718;7.114;2022-08-01T18:05:51;1.30;;;0.85;;
41079;SDS011;26826;50.718;7.114;2022-08-01T18:15:51;1.33;;;0.82;;
41079;SDS011;26826;50.718;7.114;2022-08-01T18:25:52;1.53;;;0.80;;
41079;SDS011;26826;50.718;7.114;2022-08-01T18:35:52;1.85;;;0.90;;
41079;SDS011;26826;50.718;7.114;2022-08-01T18:45:53;1.47;;;0.97;;
41079;SDS011;26826;50.718;7.114;2022-08-01T18:55:55;1.63;;;0.90;;
41079;SDS011;26826;50.718;7.114;2022-08-01T19:05:56;1.30;;;0.95;;
41079;SDS011;26826;50.718;7.114;2022-08-01T19:15:57;2.33;;;0.88;;
41079;SDS011;26826;50.718;7.114;2022-08-01T19:25:58;1.35;;;0.80;;
41079;SDS011;26826;50.718;7.114;2022-08-01T19:36:03;1.20;;;0.80;;
41079;SDS011;26826;50.718;7.114;2022-08-01T19:46:06;1.23;;;0.80;;
41079;SDS011;26826;50.718;7.114;2022-08-01T19:56:07;1.60;;;0.97;;
41079;SDS011;26826;50.718;7.114;2022-08-01T20:06:09;1.70;;;0.90;;
41079;SDS011;26826;50.718;7.114;2022-08-01T20:16:10;1.30;;;0.82;;
41079;SDS011;26826;50.718;7.114;2022-08-01T20:26:11;1.63;;;0.70;;
41079;SDS011;26826;50.718;7.114;2022-08-01T20:36:15;1.00;;;0.60;;
41079;SDS011;26826;50.718;7.114;2022-08-01T20:46:15;1.10;;;0.60;;
41079;SDS011;26826;50.718;7.114;2022-08-01T20:56:35;1.42;;;0.60;;
41079;SDS011;26826;50.718;7.114;2022-08-01T21:06:40;1.05;;;0.60;;
41079;SDS011;26826;50.718;7.114;2022-08-01T21:16:45;1.55;;;0.70;;
41079;SDS011;26826;50.718;7.114;2022-08-01T21:26:50;1.00;;;0.57;;
41079;SDS011;26826;50.718;7.114;2022-08-01T21:36:52;1.00;;;0.50;;
41079;SDS011;26826;50.718;7.114;2022-08-01T21:46:52;1.47;;;0.60;;
41079;SDS011;26826;50.718;7.114;2022-08-01T21:57:09;1.00;;;0.50;;
41079;SDS011;26826;50.718;7.114;2022-08-01T22:17:20;0.90;;;0.50;;
41079;SDS011;26826;50.718;7.114;2022-08-01T22:27:22;0.80;;;0.40;;
41079;SDS011;26826;50.718;7.114;2022-08-01T22:37:23;1.33;;;0.50;;
41079;SDS011;26826;50.718;7.114;2022-08-01T22:57:46;1.00;;;0.50;;
41079;SDS011;26826;50.718;7.114;2022-08-01T23:07:54;0.80;;;0.40;;
41079;SDS011;26826;50.718;7.114;2022-08-01T23:17:55;0.90;;;0.60;;
41079;SDS011;26826;50.718;7.114;2022-08-01T23:27:56;1.10;;;0.60;;
41079;SDS011;26826;50.718;7.114;2022-08-01T23:37:59;1.25;;;0.68;;
41079;SDS011;26826;50.718;7.114;2022-08-01T23:48:00;0.90;;;0.50;;
41079;SDS011;26826;50.718;7.114;2022-08-01T23:58:00;0.90;;;0.43;;
